KCLS/CLS METAR and TAF weather

Enter ICAO airport designator
Station Type Date Time Source
KCLS METAR 2019/10/15 09:15 UTC NOAA

KCLS 150915Z AUTO 00000KT 3SM BR 05/05 A3001 RMK AO2


Station Type Date Time Source
KCLS Decoded METAR 2019/10/15 09:15 UTC NOAA

Station name not available
Oct 15, 2019 - 05:15 AM EDT / 2019.10.15 0915 UTC
Wind: Calm:0
Visibility: 3 mile(s):0
Weather: mist
Temperature: 41 F (5 C)
Dew Point: 41 F (5 C)
Relative Humidity: 100%
Pressure (altimeter): 30.01 in. Hg (1016 hPa)
ob: KCLS 150915Z AUTO 00000KT 3SM BR 05/05 A3001 RMK AO2
cycle: 9

Station Type Date Time Source
KCLS TAF UTC NOAA

Error!

Example: see airport list